sensor_id;sensor_type;location;lat;lon;timestamp;temperature;humidity
20598;DHT22;10457;48.770;11.446;2022-08-30T00:04:48;18.10;99.90
20598;DHT22;10457;48.770;11.446;2022-08-30T00:10:11;18.00;99.90
20598;DHT22;10457;48.770;11.446;2022-08-30T00:15:33;17.90;99.90
20598;DHT22;10457;48.770;11.446;2022-08-30T00:20:55;17.80;99.90
20598;DHT22;10457;48.770;11.446;2022-08-30T00:26:18;17.80;99.90
20598;DHT22;10457;48.770;11.446;2022-08-30T00:31:39;17.80;99.90
20598;DHT22;10457;48.770;11.446;2022-08-30T00:37:01;17.80;99.90
20598;DHT22;10457;48.770;11.446;2022-08-30T00:42:24;17.80;99.90
20598;DHT22;10457;48.770;11.446;2022-08-30T00:47:46;17.70;99.90
20598;DHT22;10457;48.770;11.446;2022-08-30T00:53:11;17.70;99.90
20598;DHT22;10457;48.770;11.446;2022-08-30T00:58:37;17.60;99.90
20598;DHT22;10457;48.770;11.446;2022-08-30T01:04:01;17.40;99.90
20598;DHT22;10457;48.770;11.446;2022-08-30T01:09:23;17.40;99.90
20598;DHT22;10457;48.770;11.446;2022-08-30T01:14:46;17.30;99.90
20598;DHT22;10457;48.770;11.446;2022-08-30T01:20:11;17.30;99.90
20598;DHT22;10457;48.770;11.446;2022-08-30T01:25:37;17.30;99.90
20598;DHT22;10457;48.770;11.446;2022-08-30T01:31:01;17.30;99.90
20598;DHT22;10457;48.770;11.446;2022-08-30T01:36:23;17.30;99.90
20598;DHT22;10457;48.770;11.446;2022-08-30T01:41:46;17.20;99.90
20598;DHT22;10457;48.770;11.446;2022-08-30T01:47:08;17.20;99.90
20598;DHT22;10457;48.770;11.446;2022-08-30T01:52:30;17.20;99.90
20598;DHT22;10457;48.770;11.446;2022-08-30T01:57:53;17.20;99.90
20598;DHT22;10457;48.770;11.446;2022-08-30T02:03:14;17.00;99.90
20598;DHT22;10457;48.770;11.446;2022-08-30T02:08:36;16.90;99.90
20598;DHT22;10457;48.770;11.446;2022-08-30T02:14:00;16.80;99.90
20598;DHT22;10457;48.770;11.446;2022-08-30T02:19:22;16.80;99.90
20598;DHT22;10457;48.770;11.446;2022-08-30T02:24:43;16.80;99.90
20598;DHT22;10457;48.770;11.446;2022-08-30T02:30:08;16.90;99.90
20598;DHT22;10457;48.770;11.446;2022-08-30T02:35:30;16.80;99.90
20598;DHT22;10457;48.770;11.446;2022-08-30T02:40:52;16.70;99.90
20598;DHT22;10457;48.770;11.446;2022-08-30T02:46:15;16.60;99.90
20598;DHT22;10457;48.770;11.446;2022-08-30T02:51:37;16.60;99.90
20598;DHT22;10457;48.770;11.446;2022-08-30T02:56:59;16.60;99.90
20598;DHT22;10457;48.770;11.446;2022-08-30T03:02:25;16.50;99.90
20598;DHT22;10457;48.770;11.446;2022-08-30T03:07:46;16.60;99.90
20598;DHT22;10457;48.770;11.446;2022-08-30T03:13:08;16.60;99.90
20598;DHT22;10457;48.770;11.446;2022-08-30T03:18:31;16.50;99.90
20598;DHT22;10457;48.770;11.446;2022-08-30T03:23:53;16.50;99.90
20598;DHT22;10457;48.770;11.446;2022-08-30T03:29:15;16.50;99.90
20598;DHT22;10457;48.770;11.446;2022-08-30T03:34:38;16.60;99.90
20598;DHT22;10457;48.770;11.446;2022-08-30T03:40:00;16.50;99.90
20598;DHT22;10457;48.770;11.446;2022-08-30T03:45:22;16.60;99.90
20598;DHT22;10457;48.770;11.446;2022-08-30T03:50:44;16.40;99.90
20598;DHT22;10457;48.770;11.446;2022-08-30T03:56:06;16.30;99.90
20598;DHT22;10457;48.770;11.446;2022-08-30T04:01:27;16.20;99.90
20598;DHT22;10457;48.770;11.446;2022-08-30T04:06:51;16.20;99.90
20598;DHT22;10457;48.770;11.446;2022-08-30T04:12:12;16.10;99.90
20598;DHT22;10457;48.770;11.446;2022-08-30T04:17:34;16.00;99.90
20598;DHT22;10457;48.770;11.446;2022-08-30T04:22:56;16.00;99.90
20598;DHT22;10457;48.770;11.446;2022-08-30T04:28:18;16.00;99.90
20598;DHT22;10457;48.770;11.446;2022-08-30T04:33:39;16.00;99.90
20598;DHT22;10457;48.770;11.446;2022-08-30T04:39:02;16.00;99.90
20598;DHT22;10457;48.770;11.446;2022-08-30T04:44:24;15.90;99.90
20598;DHT22;10457;48.770;11.446;2022-08-30T04:49:46;16.00;99.90
20598;DHT22;10457;48.770;11.446;2022-08-30T04:55:11;16.10;99.90
20598;DHT22;10457;48.770;11.446;2022-08-30T05:00:33;16.20;99.90
20598;DHT22;10457;48.770;11.446;2022-08-30T05:05:56;16.20;99.90
20598;DHT22;10457;48.770;11.446;2022-08-30T05:11:19;16.20;99.90
20598;DHT22;10457;48.770;11.446;2022-08-30T05:16:41;16.30;99.90
20598;DHT22;10457;48.770;11.446;2022-08-30T05:22:03;16.60;99.90
20598;DHT22;10457;48.770;11.446;2022-08-30T05:27:26;17.00;99.90
20598;DHT22;10457;48.770;11.446;2022-08-30T05:32:48;17.40;99.90
20598;DHT22;10457;48.770;11.446;2022-08-30T05:38:10;17.80;99.90
20598;DHT22;10457;48.770;11.446;2022-08-30T05:43:33;18.20;97.90
20598;DHT22;10457;48.770;11.446;2022-08-30T05:48:56;18.40;96.30
20598;DHT22;10457;48.770;11.446;2022-08-30T05:54:18;18.60;95.30
20598;DHT22;10457;48.770;11.446;2022-08-30T05:59:41;18.50;96.10
20598;DHT22;10457;48.770;11.446;2022-08-30T06:05:03;18.90;91.70
20598;DHT22;10457;48.770;11.446;2022-08-30T06:10:24;19.10;89.20
20598;DHT22;10457;48.770;11.446;2022-08-30T06:15:47;19.30;88.20
20598;DHT22;10457;48.770;11.446;2022-08-30T06:21:15;19.30;89.80
20598;DHT22;10457;48.770;11.446;2022-08-30T06:26:41;19.40;89.40
20598;DHT22;10457;48.770;11.446;2022-08-30T06:32:05;19.40;87.40
20598;DHT22;10457;48.770;11.446;2022-08-30T06:37:27;19.50;88.10
20598;DHT22;10457;48.770;11.446;2022-08-30T06:42:49;19.60;88.60
20598;DHT22;10457;48.770;11.446;2022-08-30T06:48:11;19.60;88.70
20598;DHT22;10457;48.770;11.446;2022-08-30T06:53:33;19.40;90.00
20598;DHT22;10457;48.770;11.446;2022-08-30T06:58:56;19.60;90.20
20598;DHT22;10457;48.770;11.446;2022-08-30T07:04:18;19.80;89.30
20598;DHT22;10457;48.770;11.446;2022-08-30T07:09:40;20.10;87.00
20598;DHT22;10457;48.770;11.446;2022-08-30T07:15:04;20.30;86.20
20598;DHT22;10457;48.770;11.446;2022-08-30T07:20:28;20.60;86.70
20598;DHT22;10457;48.770;11.446;2022-08-30T07:25:50;21.00;83.40
20598;DHT22;10457;48.770;11.446;2022-08-30T07:31:12;21.00;81.30
20598;DHT22;10457;48.770;11.446;2022-08-30T07:36:37;21.30;81.70
20598;DHT22;10457;48.770;11.446;2022-08-30T07:41:59;21.80;79.50
20598;DHT22;10457;48.770;11.446;2022-08-30T07:47:20;22.20;81.30
20598;DHT22;10457;48.770;11.446;2022-08-30T07:52:43;22.80;78.70
20598;DHT22;10457;48.770;11.446;2022-08-30T07:58:05;23.50;76.40
20598;DHT22;10457;48.770;11.446;2022-08-30T08:03:27;24.10;73.10
20598;DHT22;10457;48.770;11.446;2022-08-30T08:08:51;24.60;67.90
20598;DHT22;10457;48.770;11.446;2022-08-30T08:14:15;24.30;70.10
20598;DHT22;10457;48.770;11.446;2022-08-30T08:19:36;24.10;69.50
20598;DHT22;10457;48.770;11.446;2022-08-30T08:24:59;24.10;70.90
20598;DHT22;10457;48.770;11.446;2022-08-30T08:30:22;24.70;68.10
20598;DHT22;10457;48.770;11.446;2022-08-30T08:35:44;24.90;67.40
20598;DHT22;10457;48.770;11.446;2022-08-30T08:41:10;25.40;76.90
20598;DHT22;10457;48.770;11.446;2022-08-30T08:46:40;25.90;67.20
20598;DHT22;10457;48.770;11.446;2022-08-30T08:52:06;26.00;65.40
20598;DHT22;10457;48.770;11.446;2022-08-30T08:57:44;26.40;61.20
20598;DHT22;10457;48.770;11.446;2022-08-30T09:03:09;26.90;63.70
20598;DHT22;10457;48.770;11.446;2022-08-30T09:08:34;27.30;59.70
20598;DHT22;10457;48.770;11.446;2022-08-30T09:13:58;27.90;61.60
20598;DHT22;10457;48.770;11.446;2022-08-30T09:19:35;27.90;56.20
20598;DHT22;10457;48.770;11.446;2022-08-30T09:25:02;28.10;55.10
20598;DHT22;10457;48.770;11.446;2022-08-30T09:30:28;28.40;55.30
20598;DHT22;10457;48.770;11.446;2022-08-30T09:35:51;28.40;54.80
20598;DHT22;10457;48.770;11.446;2022-08-30T09:41:28;28.80;54.40
20598;DHT22;10457;48.770;11.446;2022-08-30T09:46:58;28.90;52.70
20598;DHT22;10457;48.770;11.446;2022-08-30T09:52:34;29.30;50.20
20598;DHT22;10457;48.770;11.446;2022-08-30T09:58:07;29.20;51.10
20598;DHT22;10457;48.770;11.446;2022-08-30T10:03:35;29.20;48.50
20598;DHT22;10457;48.770;11.446;2022-08-30T10:09:11;29.50;49.60
20598;DHT22;10457;48.770;11.446;2022-08-30T10:14:56;30.40;48.70
20598;DHT22;10457;48.770;11.446;2022-08-30T10:20:28;30.60;46.90
20598;DHT22;10457;48.770;11.446;2022-08-30T10:25:54;31.20;46.80
20598;DHT22;10457;48.770;11.446;2022-08-30T10:31:32;32.80;41.00
20598;DHT22;10457;48.770;11.446;2022-08-30T10:37:03;34.10;39.40
20598;DHT22;10457;48.770;11.446;2022-08-30T10:42:31;34.50;37.80
20598;DHT22;10457;48.770;11.446;2022-08-30T10:48:02;34.80;39.40
20598;DHT22;10457;48.770;11.446;2022-08-30T10:53:32;35.50;37.50
20598;DHT22;10457;48.770;11.446;2022-08-30T10:58:59;36.70;34.10
20598;DHT22;10457;48.770;11.446;2022-08-30T11:10:56;39.60;29.60
20598;DHT22;10457;48.770;11.446;2022-08-30T11:16:33;40.50;27.20
20598;DHT22;10457;48.770;11.446;2022-08-30T11:22:10;38.20;29.60
20598;DHT22;10457;48.770;11.446;2022-08-30T11:27:41;37.60;30.70
20598;DHT22;10457;48.770;11.446;2022-08-30T11:39:41;38.20;30.60
20598;DHT22;10457;48.770;11.446;2022-08-30T11:45:43;38.30;31.10
20598;DHT22;10457;48.770;11.446;2022-08-30T11:51:12;39.50;30.00
20598;DHT22;10457;48.770;11.446;2022-08-30T11:57:03;38.80;28.40
20598;DHT22;10457;48.770;11.446;2022-08-30T12:02:51;40.20;30.70
20598;DHT22;10457;48.770;11.446;2022-08-30T12:08:42;39.90;27.80
20598;DHT22;10457;48.770;11.446;2022-08-30T12:20:24;35.00;34.70
20598;DHT22;10457;48.770;11.446;2022-08-30T12:25:47;35.60;32.30
20598;DHT22;10457;48.770;11.446;2022-08-30T12:31:12;37.10;34.00
20598;DHT22;10457;48.770;11.446;2022-08-30T12:36:39;36.40;34.50
20598;DHT22;10457;48.770;11.446;2022-08-30T12:42:17;37.70;30.00
20598;DHT22;10457;48.770;11.446;2022-08-30T12:47:43;36.10;34.60
20598;DHT22;10457;48.770;11.446;2022-08-30T12:53:09;33.50;36.90
20598;DHT22;10457;48.770;11.446;2022-08-30T12:58:41;31.70;40.00
20598;DHT22;10457;48.770;11.446;2022-08-30T13:04:12;30.60;40.70
20598;DHT22;10457;48.770;11.446;2022-08-30T13:09:41;30.10;43.90
20598;DHT22;10457;48.770;11.446;2022-08-30T13:15:16;32.30;38.50
20598;DHT22;10457;48.770;11.446;2022-08-30T13:20:39;36.50;33.60
20598;DHT22;10457;48.770;11.446;2022-08-30T13:26:05;38.10;31.90
20598;DHT22;10457;48.770;11.446;2022-08-30T13:31:28;39.30;29.80
20598;DHT22;10457;48.770;11.446;2022-08-30T13:36:54;40.00;28.60
20598;DHT22;10457;48.770;11.446;2022-08-30T13:42:17;39.10;30.60
20598;DHT22;10457;48.770;11.446;2022-08-30T13:47:39;38.60;28.10
20598;DHT22;10457;48.770;11.446;2022-08-30T13:53:02;36.90;30.80
20598;DHT22;10457;48.770;11.446;2022-08-30T13:58:26;34.10;35.30
20598;DHT22;10457;48.770;11.446;2022-08-30T14:03:47;32.20;37.80
20598;DHT22;10457;48.770;11.446;2022-08-30T14:09:09;30.40;42.80
20598;DHT22;10457;48.770;11.446;2022-08-30T14:14:34;29.40;43.70
20598;DHT22;10457;48.770;11.446;2022-08-30T14:19:56;28.80;43.70
20598;DHT22;10457;48.770;11.446;2022-08-30T14:25:18;28.20;45.60
20598;DHT22;10457;48.770;11.446;2022-08-30T14:30:40;28.10;45.60
20598;DHT22;10457;48.770;11.446;2022-08-30T14:36:02;28.20;48.20
20598;DHT22;10457;48.770;11.446;2022-08-30T14:41:24;28.50;44.60
20598;DHT22;10457;48.770;11.446;2022-08-30T14:46:47;28.60;46.40
20598;DHT22;10457;48.770;11.446;2022-08-30T14:52:09;28.50;45.80
20598;DHT22;10457;48.770;11.446;2022-08-30T14:57:31;28.60;44.90
20598;DHT22;10457;48.770;11.446;2022-08-30T15:02:54;28.80;44.90
20598;DHT22;10457;48.770;11.446;2022-08-30T15:08:16;29.10;42.40
20598;DHT22;10457;48.770;11.446;2022-08-30T15:13:38;29.10;42.30
20598;DHT22;10457;48.770;11.446;2022-08-30T15:19:03;28.70;42.30
20598;DHT22;10457;48.770;11.446;2022-08-30T15:24:26;28.60;45.60
20598;DHT22;10457;48.770;11.446;2022-08-30T15:29:47;28.80;45.00
20598;DHT22;10457;48.770;11.446;2022-08-30T15:35:10;28.90;41.80
20598;DHT22;10457;48.770;11.446;2022-08-30T15:40:35;29.00;42.80
20598;DHT22;10457;48.770;11.446;2022-08-30T15:46:16;29.00;43.70
20598;DHT22;10457;48.770;11.446;2022-08-30T15:51:45;28.70;42.10
20598;DHT22;10457;48.770;11.446;2022-08-30T15:57:07;28.20;44.30
20598;DHT22;10457;48.770;11.446;2022-08-30T16:02:29;27.90;45.90
20598;DHT22;10457;48.770;11.446;2022-08-30T16:07:55;27.60;45.70
20598;DHT22;10457;48.770;11.446;2022-08-30T16:13:16;27.40;45.80
20598;DHT22;10457;48.770;11.446;2022-08-30T16:18:42;27.30;45.50
20598;DHT22;10457;48.770;11.446;2022-08-30T16:24:07;27.20;47.60
20598;DHT22;10457;48.770;11.446;2022-08-30T16:29:32;27.00;48.90
20598;DHT22;10457;48.770;11.446;2022-08-30T16:34:53;26.70;47.80
20598;DHT22;10457;48.770;11.446;2022-08-30T16:40:16;26.60;49.00
20598;DHT22;10457;48.770;11.446;2022-08-30T16:45:41;26.50;48.80
20598;DHT22;10457;48.770;11.446;2022-08-30T16:51:09;26.40;49.20
20598;DHT22;10457;48.770;11.446;2022-08-30T16:56:33;26.20;49.70
20598;DHT22;10457;48.770;11.446;2022-08-30T17:01:55;26.20;48.30
20598;DHT22;10457;48.770;11.446;2022-08-30T17:07:17;26.00;48.70
20598;DHT22;10457;48.770;11.446;2022-08-30T17:12:40;25.90;48.70
20598;DHT22;10457;48.770;11.446;2022-08-30T17:18:01;25.80;49.50
20598;DHT22;10457;48.770;11.446;2022-08-30T17:23:25;25.60;50.60
20598;DHT22;10457;48.770;11.446;2022-08-30T17:28:52;25.40;50.80
20598;DHT22;10457;48.770;11.446;2022-08-30T17:34:14;25.30;49.50
20598;DHT22;10457;48.770;11.446;2022-08-30T17:39:36;25.00;51.50
20598;DHT22;10457;48.770;11.446;2022-08-30T17:45:02;24.80;50.50
20598;DHT22;10457;48.770;11.446;2022-08-30T17:50:24;24.70;50.80
20598;DHT22;10457;48.770;11.446;2022-08-30T17:55:47;24.60;50.80
20598;DHT22;10457;48.770;11.446;2022-08-30T18:01:12;24.40;51.30
20598;DHT22;10457;48.770;11.446;2022-08-30T18:06:35;24.10;53.20
20598;DHT22;10457;48.770;11.446;2022-08-30T18:11:56;24.00;53.90
20598;DHT22;10457;48.770;11.446;2022-08-30T18:17:19;24.00;52.20
20598;DHT22;10457;48.770;11.446;2022-08-30T18:22:41;23.80;52.30
20598;DHT22;10457;48.770;11.446;2022-08-30T18:28:02;23.50;53.50
20598;DHT22;10457;48.770;11.446;2022-08-30T18:33:26;23.40;53.40
20598;DHT22;10457;48.770;11.446;2022-08-30T18:38:48;23.20;54.20
20598;DHT22;10457;48.770;11.446;2022-08-30T18:44:09;23.00;54.40
20598;DHT22;10457;48.770;11.446;2022-08-30T18:49:34;22.90;53.90
20598;DHT22;10457;48.770;11.446;2022-08-30T18:54:55;22.80;53.90
20598;DHT22;10457;48.770;11.446;2022-08-30T19:00:17;22.60;55.60
20598;DHT22;10457;48.770;11.446;2022-08-30T19:05:41;22.50;55.40
20598;DHT22;10457;48.770;11.446;2022-08-30T19:11:03;22.30;56.60
20598;DHT22;10457;48.770;11.446;2022-08-30T19:16:25;22.20;56.40
20598;DHT22;10457;48.770;11.446;2022-08-30T19:21:48;22.20;55.50
20598;DHT22;10457;48.770;11.446;2022-08-30T19:27:10;22.00;56.70
20598;DHT22;10457;48.770;11.446;2022-08-30T19:32:32;21.80;56.50
20598;DHT22;10457;48.770;11.446;2022-08-30T19:37:55;21.90;56.60
20598;DHT22;10457;48.770;11.446;2022-08-30T19:43:17;21.80;55.70
20598;DHT22;10457;48.770;11.446;2022-08-30T19:48:38;21.80;55.70
20598;DHT22;10457;48.770;11.446;2022-08-30T19:54:04;21.80;56.30
20598;DHT22;10457;48.770;11.446;2022-08-30T19:59:26;21.60;56.90
20598;DHT22;10457;48.770;11.446;2022-08-30T20:04:47;21.50;57.50
20598;DHT22;10457;48.770;11.446;2022-08-30T20:10:12;21.40;58.10
20598;DHT22;10457;48.770;11.446;2022-08-30T20:15:35;21.40;58.00
20598;DHT22;10457;48.770;11.446;2022-08-30T20:20:56;21.30;58.70
20598;DHT22;10457;48.770;11.446;2022-08-30T20:26:19;21.20;59.30
20598;DHT22;10457;48.770;11.446;2022-08-30T20:31:41;21.10;60.10
20598;DHT22;10457;48.770;11.446;2022-08-30T20:37:03;21.00;60.70
20598;DHT22;10457;48.770;11.446;2022-08-30T20:42:28;21.00;61.50
20598;DHT22;10457;48.770;11.446;2022-08-30T20:47:50;21.00;63.00
20598;DHT22;10457;48.770;11.446;2022-08-30T20:53:11;21.00;63.60
20598;DHT22;10457;48.770;11.446;2022-08-30T20:58:34;20.90;65.70
20598;DHT22;10457;48.770;11.446;2022-08-30T21:03:56;20.90;65.90
20598;DHT22;10457;48.770;11.446;2022-08-30T21:09:17;20.80;66.50
20598;DHT22;10457;48.770;11.446;2022-08-30T21:14:40;20.70;67.90
20598;DHT22;10457;48.770;11.446;2022-08-30T21:20:03;20.60;68.40
20598;DHT22;10457;48.770;11.446;2022-08-30T21:25:25;20.60;69.80
20598;DHT22;10457;48.770;11.446;2022-08-30T21:30:48;20.50;70.60
20598;DHT22;10457;48.770;11.446;2022-08-30T21:36:10;20.50;71.00
20598;DHT22;10457;48.770;11.446;2022-08-30T21:41:58;20.50;71.20
20598;DHT22;10457;48.770;11.446;2022-08-30T21:47:20;20.40;71.50
20598;DHT22;10457;48.770;11.446;2022-08-30T21:52:43;20.40;72.00
20598;DHT22;10457;48.770;11.446;2022-08-30T21:58:04;20.40;72.30
20598;DHT22;10457;48.770;11.446;2022-08-30T22:03:27;20.50;72.40
20598;DHT22;10457;48.770;11.446;2022-08-30T22:08:49;20.50;72.70
20598;DHT22;10457;48.770;11.446;2022-08-30T22:14:11;20.40;73.60
20598;DHT22;10457;48.770;11.446;2022-08-30T22:19:34;20.30;74.30
20598;DHT22;10457;48.770;11.446;2022-08-30T22:24:55;20.30;74.30
20598;DHT22;10457;48.770;11.446;2022-08-30T22:30:17;20.20;75.00
20598;DHT22;10457;48.770;11.446;2022-08-30T22:35:40;20.00;76.20
20598;DHT22;10457;48.770;11.446;2022-08-30T22:41:02;20.00;76.50
20598;DHT22;10457;48.770;11.446;2022-08-30T22:46:29;20.00;76.50
20598;DHT22;10457;48.770;11.446;2022-08-30T22:51:52;20.00;76.30
20598;DHT22;10457;48.770;11.446;2022-08-30T22:57:13;20.00;76.90
20598;DHT22;10457;48.770;11.446;2022-08-30T23:02:38;19.80;77.40
20598;DHT22;10457;48.770;11.446;2022-08-30T23:08:01;19.90;78.00
20598;DHT22;10457;48.770;11.446;2022-08-30T23:13:24;19.70;79.40
20598;DHT22;10457;48.770;11.446;2022-08-30T23:18:46;19.70;79.10
20598;DHT22;10457;48.770;11.446;2022-08-30T23:24:09;19.60;80.00
20598;DHT22;10457;48.770;11.446;2022-08-30T23:29:48;19.50;80.20
20598;DHT22;10457;48.770;11.446;2022-08-30T23:35:27;19.50;80.70
20598;DHT22;10457;48.770;11.446;2022-08-30T23:41:08;19.50;81.00
20598;DHT22;10457;48.770;11.446;2022-08-30T23:46:46;19.60;80.80
20598;DHT22;10457;48.770;11.446;2022-08-30T23:52:26;19.70;80.10
20598;DHT22;10457;48.770;11.446;2022-08-30T23:58:06;19.60;80.90
